sensor_id;sensor_type;location;lat;lon;timestamp;pressure;altitude;pressure_sealevel;temperature;humidity
19447;BME280;9862;49.462;11.054;2022-12-01T00:01:15;98643.44;;;7.20;100.00
19447;BME280;9862;49.462;11.054;2022-12-01T00:03:42;98636.47;;;7.27;100.00
19447;BME280;9862;49.462;11.054;2022-12-01T00:06:11;98640.09;;;7.26;100.00
19447;BME280;9862;49.462;11.054;2022-12-01T00:08:39;98644.06;;;7.22;100.00
19447;BME280;9862;49.462;11.054;2022-12-01T00:11:26;98649.19;;;7.24;100.00
19447;BME280;9862;49.462;11.054;2022-12-01T00:13:52;98638.75;;;7.30;100.00
19447;BME280;9862;49.462;11.054;2022-12-01T00:16:19;98638.56;;;7.32;100.00
19447;BME280;9862;49.462;11.054;2022-12-01T00:18:48;98640.72;;;7.36;100.00
19447;BME280;9862;49.462;11.054;2022-12-01T00:21:17;98644.19;;;7.37;100.00
19447;BME280;9862;49.462;11.054;2022-12-01T00:23:45;98641.19;;;7.40;100.00
19447;BME280;9862;49.462;11.054;2022-12-01T00:26:12;98645.81;;;7.46;100.00
19447;BME280;9862;49.462;11.054;2022-12-01T00:28:39;98636.50;;;7.50;100.00
19447;BME280;9862;49.462;11.054;2022-12-01T00:31:06;98641.63;;;7.52;100.00
19447;BME280;9862;49.462;11.054;2022-12-01T00:33:33;98645.59;;;7.56;100.00
19447;BME280;9862;49.462;11.054;2022-12-01T00:36:00;98641.63;;;7.52;100.00
19447;BME280;9862;49.462;11.054;2022-12-01T00:38:28;98639.69;;;7.45;100.00
19447;BME280;9862;49.462;11.054;2022-12-01T00:40:55;98652.34;;;7.27;100.00
19447;BME280;9862;49.462;11.054;2022-12-01T00:43:21;98647.09;;;7.11;100.00
19447;BME280;9862;49.462;11.054;2022-12-01T00:45:49;98650.41;;;7.13;100.00
19447;BME280;9862;49.462;11.054;2022-12-01T00:48:16;98650.06;;;7.24;100.00
19447;BME280;9862;49.462;11.054;2022-12-01T00:50:43;98653.16;;;7.28;100.00
19447;BME280;9862;49.462;11.054;2022-12-01T00:53:09;98645.50;;;7.33;100.00
19447;BME280;9862;49.462;11.054;2022-12-01T00:55:37;98658.88;;;7.08;100.00
19447;BME280;9862;49.462;11.054;2022-12-01T00:58:04;98650.47;;;6.97;100.00
19447;BME280;9862;49.462;11.054;2022-12-01T01:00:31;98653.09;;;7.05;100.00
19447;BME280;9862;49.462;11.054;2022-12-01T01:02:58;98654.75;;;7.06;100.00
19447;BME280;9862;49.462;11.054;2022-12-01T01:05:24;98648.69;;;7.28;100.00
19447;BME280;9862;49.462;11.054;2022-12-01T01:07:51;98661.53;;;7.39;100.00
19447;BME280;9862;49.462;11.054;2022-12-01T01:10:18;98647.63;;;7.06;100.00
19447;BME280;9862;49.462;11.054;2022-12-01T01:12:45;98653.75;;;7.07;100.00
19447;BME280;9862;49.462;11.054;2022-12-01T01:15:12;98657.00;;;7.17;100.00
19447;BME280;9862;49.462;11.054;2022-12-01T01:17:39;98653.22;;;7.11;100.00
19447;BME280;9862;49.462;11.054;2022-12-01T01:20:06;98651.41;;;7.12;100.00
19447;BME280;9862;49.462;11.054;2022-12-01T01:22:33;98652.72;;;7.16;100.00
19447;BME280;9862;49.462;11.054;2022-12-01T01:25:00;98652.34;;;7.27;100.00
19447;BME280;9862;49.462;11.054;2022-12-01T01:27:27;98661.31;;;7.18;100.00
19447;BME280;9862;49.462;11.054;2022-12-01T01:29:55;98657.69;;;7.11;100.00
19447;BME280;9862;49.462;11.054;2022-12-01T01:32:21;98655.56;;;7.06;100.00
19447;BME280;9862;49.462;11.054;2022-12-01T01:34:48;98655.56;;;7.06;100.00
19447;BME280;9862;49.462;11.054;2022-12-01T01:37:15;98663.88;;;6.95;100.00
19447;BME280;9862;49.462;11.054;2022-12-01T01:39:41;98660.75;;;6.83;100.00
19447;BME280;9862;49.462;11.054;2022-12-01T01:42:08;98662.75;;;6.73;100.00
19447;BME280;9862;49.462;11.054;2022-12-01T01:44:47;98662.56;;;6.75;100.00
19447;BME280;9862;49.462;11.054;2022-12-01T01:47:18;98662.28;;;6.70;100.00
19447;BME280;9862;49.462;11.054;2022-12-01T01:49:46;98658.28;;;6.74;100.00
19447;BME280;9862;49.462;11.054;2022-12-01T01:52:13;98658.44;;;6.80;100.00
19447;BME280;9862;49.462;11.054;2022-12-01T01:54:43;98670.31;;;6.84;100.00
19447;BME280;9862;49.462;11.054;2022-12-01T01:57:14;98667.72;;;6.76;100.00
19447;BME280;9862;49.462;11.054;2022-12-01T01:59:44;98666.84;;;6.84;100.00
19447;BME280;9862;49.462;11.054;2022-12-01T02:02:13;98669.00;;;6.97;100.00
19447;BME280;9862;49.462;11.054;2022-12-01T02:04:44;98667.59;;;7.17;100.00
19447;BME280;9862;49.462;11.054;2022-12-01T02:07:15;98665.59;;;7.19;100.00
19447;BME280;9862;49.462;11.054;2022-12-01T02:09:42;98660.66;;;7.16;100.00
19447;BME280;9862;49.462;11.054;2022-12-01T02:12:20;98665.34;;;7.06;100.00
19447;BME280;9862;49.462;11.054;2022-12-01T02:15:03;98662.38;;;6.93;100.00
19447;BME280;9862;49.462;11.054;2022-12-01T02:17:37;98662.72;;;6.89;100.00
19447;BME280;9862;49.462;11.054;2022-12-01T02:23:37;98658.78;;;6.77;100.00
19447;BME280;9862;49.462;11.054;2022-12-01T02:26:29;98660.94;;;6.74;100.00
19447;BME280;9862;49.462;11.054;2022-12-01T02:29:20;98664.09;;;6.69;100.00
19447;BME280;9862;49.462;11.054;2022-12-01T02:31:57;98661.75;;;6.74;100.00
19447;BME280;9862;49.462;11.054;2022-12-01T02:34:31;98652.16;;;6.73;100.00
19447;BME280;9862;49.462;11.054;2022-12-01T02:37:05;98654.19;;;6.55;100.00
19447;BME280;9862;49.462;11.054;2022-12-01T02:39:37;98653.53;;;6.61;100.00
19447;BME280;9862;49.462;11.054;2022-12-01T02:42:13;98646.25;;;6.55;100.00
19447;BME280;9862;49.462;11.054;2022-12-01T02:45:04;98658.00;;;6.52;100.00
19447;BME280;9862;49.462;11.054;2022-12-01T02:47:36;98646.25;;;6.55;100.00
19447;BME280;9862;49.462;11.054;2022-12-01T02:50:05;98645.78;;;6.43;100.00
19447;BME280;9862;49.462;11.054;2022-12-01T02:52:33;98656.03;;;6.30;100.00
19447;BME280;9862;49.462;11.054;2022-12-01T02:55:00;98655.53;;;6.35;100.00
19447;BME280;9862;49.462;11.054;2022-12-01T02:57:28;98640.00;;;6.40;100.00
19447;BME280;9862;49.462;11.054;2022-12-01T02:59:56;98638.53;;;6.37;100.00
19447;BME280;9862;49.462;11.054;2022-12-01T03:02:29;98640.31;;;6.37;100.00
19447;BME280;9862;49.462;11.054;2022-12-01T03:05:15;98638.19;;;6.24;100.00
19447;BME280;9862;49.462;11.054;2022-12-01T03:07:55;98632.91;;;6.24;100.00
19447;BME280;9862;49.462;11.054;2022-12-01T03:10:27;98639.53;;;6.28;100.00
19447;BME280;9862;49.462;11.054;2022-12-01T03:13:04;98647.47;;;6.28;100.00
19447;BME280;9862;49.462;11.054;2022-12-01T03:15:36;98633.56;;;6.34;100.00
19447;BME280;9862;49.462;11.054;2022-12-01T03:18:12;98646.59;;;6.36;100.00
19447;BME280;9862;49.462;11.054;2022-12-01T03:20:48;98635.72;;;6.39;100.00
19447;BME280;9862;49.462;11.054;2022-12-01T03:23:21;98632.09;;;6.40;100.00
19447;BME280;9862;49.462;11.054;2022-12-01T03:25:50;98629.44;;;6.31;100.00
19447;BME280;9862;49.462;11.054;2022-12-01T03:28:22;98631.09;;;6.32;100.00
19447;BME280;9862;49.462;11.054;2022-12-01T03:30:55;98626.13;;;6.38;100.00
19447;BME280;9862;49.462;11.054;2022-12-01T03:33:28;98630.09;;;6.42;100.00
19447;BME280;9862;49.462;11.054;2022-12-01T03:36:00;98626.13;;;6.38;100.00
19447;BME280;9862;49.462;11.054;2022-12-01T03:38:29;98629.44;;;6.40;100.00
19447;BME280;9862;49.462;11.054;2022-12-01T03:41:00;98632.06;;;6.48;100.00
19447;BME280;9862;49.462;11.054;2022-12-01T03:43:30;98630.09;;;6.42;100.00
19447;BME280;9862;49.462;11.054;2022-12-01T03:46:02;98630.75;;;6.44;100.00
19447;BME280;9862;49.462;11.054;2022-12-01T03:48:33;98633.38;;;6.44;100.00
19447;BME280;9862;49.462;11.054;2022-12-01T03:51:08;98637.19;;;6.49;100.00
19447;BME280;9862;49.462;11.054;2022-12-01T03:53:46;98641.09;;;6.78;100.00
19447;BME280;9862;49.462;11.054;2022-12-01T03:56:17;98618.25;;;6.85;100.00
19447;BME280;9862;49.462;11.054;2022-12-01T03:58:47;98625.34;;;6.84;100.00
19447;BME280;9862;49.462;11.054;2022-12-01T04:01:15;98637.66;;;6.69;100.00
19447;BME280;9862;49.462;11.054;2022-12-01T04:03:44;98632.72;;;6.58;100.00
19447;BME280;9862;49.462;11.054;2022-12-01T04:06:12;98637.31;;;6.56;100.00
19447;BME280;9862;49.462;11.054;2022-12-01T04:08:39;98627.25;;;6.59;100.00
19447;BME280;9862;49.462;11.054;2022-12-01T04:11:06;98627.44;;;6.58;100.00
19447;BME280;9862;49.462;11.054;2022-12-01T04:13:47;98639.31;;;6.54;100.00
19447;BME280;9862;49.462;11.054;2022-12-01T04:16:13;98626.09;;;6.46;100.00
19447;BME280;9862;49.462;11.054;2022-12-01T04:18:40;98642.00;;;6.38;100.00
19447;BME280;9862;49.462;11.054;2022-12-01T04:21:07;98636.38;;;6.32;100.00
19447;BME280;9862;49.462;11.054;2022-12-01T04:23:35;98629.44;;;6.23;100.00
19447;BME280;9862;49.462;11.054;2022-12-01T04:26:19;98634.06;;;6.21;100.00
19447;BME280;9862;49.462;11.054;2022-12-01T04:28:45;98631.44;;;6.29;100.00
19447;BME280;9862;49.462;11.054;2022-12-01T04:31:13;98625.81;;;6.24;100.00
19447;BME280;9862;49.462;11.054;2022-12-01T04:33:39;98635.88;;;6.21;100.00
19447;BME280;9862;49.462;11.054;2022-12-01T04:36:07;98628.13;;;6.27;100.00
19447;BME280;9862;49.462;11.054;2022-12-01T04:38:35;98628.78;;;6.21;100.00
19447;BME280;9862;49.462;11.054;2022-12-01T04:41:07;98625.50;;;6.19;100.00
19447;BME280;9862;49.462;11.054;2022-12-01T04:43:34;98618.53;;;6.26;100.00
19447;BME280;9862;49.462;11.054;2022-12-01T04:46:00;98625.16;;;6.30;100.00
19447;BME280;9862;49.462;11.054;2022-12-01T04:48:27;98620.16;;;6.36;100.00
19447;BME280;9862;49.462;11.054;2022-12-01T04:50:53;98627.13;;;6.28;100.00
19447;BME280;9862;49.462;11.054;2022-12-01T04:53:20;98631.59;;;6.20;100.00
19447;BME280;9862;49.462;11.054;2022-12-01T04:55:48;98630.09;;;6.25;100.00
19447;BME280;9862;49.462;11.054;2022-12-01T04:58:15;98630.09;;;6.25;100.00
19447;BME280;9862;49.462;11.054;2022-12-01T05:00:42;98632.09;;;6.23;100.00
19447;BME280;9862;49.462;11.054;2022-12-01T05:03:09;98634.38;;;6.26;100.00
19447;BME280;9862;49.462;11.054;2022-12-01T05:05:35;98636.53;;;6.23;100.00
19447;BME280;9862;49.462;11.054;2022-12-01T05:08:02;98629.44;;;6.23;100.00
19447;BME280;9862;49.462;11.054;2022-12-01T05:10:29;98636.06;;;6.19;100.00
19447;BME280;9862;49.462;11.054;2022-12-01T05:12:57;98635.06;;;6.28;100.00
19447;BME280;9862;49.462;11.054;2022-12-01T05:15:24;98638.53;;;6.37;100.00
19447;BME280;9862;49.462;11.054;2022-12-01T05:17:51;98635.03;;;6.37;100.00
19447;BME280;9862;49.462;11.054;2022-12-01T05:20:19;98633.25;;;6.29;100.00
19447;BME280;9862;49.462;11.054;2022-12-01T05:23:04;98635.72;;;6.39;100.00
19447;BME280;9862;49.462;11.054;2022-12-01T05:25:31;98630.09;;;6.42;100.00
19447;BME280;9862;49.462;11.054;2022-12-01T05:27:59;98630.44;;;6.47;100.00
19447;BME280;9862;49.462;11.054;2022-12-01T05:30:26;98622.50;;;6.39;100.00
19447;BME280;9862;49.462;11.054;2022-12-01T05:32:53;98626.44;;;6.26;100.00
19447;BME280;9862;49.462;11.054;2022-12-01T05:35:19;98620.84;;;6.13;100.00
19447;BME280;9862;49.462;11.054;2022-12-01T05:37:46;98612.91;;;5.89;100.00
19447;BME280;9862;49.462;11.054;2022-12-01T05:40:13;98622.13;;;5.77;100.00
19447;BME280;9862;49.462;11.054;2022-12-01T05:42:39;98620.16;;;5.70;100.00
19447;BME280;9862;49.462;11.054;2022-12-01T05:45:08;98625.44;;;5.70;100.00
19447;BME280;9862;49.462;11.054;2022-12-01T05:47:38;98628.41;;;5.84;100.00
19447;BME280;9862;49.462;11.054;2022-12-01T05:50:06;98637.38;;;5.91;100.00
19447;BME280;9862;49.462;11.054;2022-12-01T05:52:33;98623.50;;;6.21;100.00
19447;BME280;9862;49.462;11.054;2022-12-01T05:55:00;98621.81;;;6.45;100.00
19447;BME280;9862;49.462;11.054;2022-12-01T05:57:30;98623.44;;;6.54;100.00
19447;BME280;9862;49.462;11.054;2022-12-01T05:59:56;98622.16;;;6.42;100.00
19447;BME280;9862;49.462;11.054;2022-12-01T06:02:25;98618.53;;;6.35;100.00
19447;BME280;9862;49.462;11.054;2022-12-01T06:04:52;98615.75;;;6.28;100.00
19447;BME280;9862;49.462;11.054;2022-12-01T06:07:19;98624.81;;;6.25;100.00
19447;BME280;9862;49.462;11.054;2022-12-01T06:09:47;98620.22;;;6.19;100.00
19447;BME280;9862;49.462;11.054;2022-12-01T06:12:14;98617.91;;;6.08;100.00
19447;BME280;9862;49.462;11.054;2022-12-01T06:14:41;98624.31;;;6.06;100.00
19447;BME280;9862;49.462;11.054;2022-12-01T06:17:07;98621.03;;;6.03;100.00
19447;BME280;9862;49.462;11.054;2022-12-01T06:19:36;98625.97;;;6.07;100.00
19447;BME280;9862;49.462;11.054;2022-12-01T06:22:03;98629.59;;;6.06;100.00
19447;BME280;9862;49.462;11.054;2022-12-01T06:24:30;98623.66;;;6.03;100.00
19447;BME280;9862;49.462;11.054;2022-12-01T06:26:57;98628.47;;;6.00;100.00
19447;BME280;9862;49.462;11.054;2022-12-01T06:29:24;98630.09;;;5.93;100.00
19447;BME280;9862;49.462;11.054;2022-12-01T06:31:50;98639.63;;;5.86;100.00
19447;BME280;9862;49.462;11.054;2022-12-01T06:34:17;98639.69;;;5.94;100.00
19447;BME280;9862;49.462;11.054;2022-12-01T06:36:45;98632.53;;;5.86;100.00
19447;BME280;9862;49.462;11.054;2022-12-01T06:39:13;98645.25;;;5.83;100.00
19447;BME280;9862;49.462;11.054;2022-12-01T06:41:41;98643.09;;;5.78;100.00
19447;BME280;9862;49.462;11.054;2022-12-01T06:44:08;98649.03;;;5.72;100.00
19447;BME280;9862;49.462;11.054;2022-12-01T06:46:35;98644.25;;;5.75;100.00
19447;BME280;9862;49.462;11.054;2022-12-01T06:49:02;98646.22;;;5.73;100.00
19447;BME280;9862;49.462;11.054;2022-12-01T06:51:29;98652.16;;;5.67;100.00
19447;BME280;9862;49.462;11.054;2022-12-01T06:53:59;98654.09;;;5.57;100.00
19447;BME280;9862;49.462;11.054;2022-12-01T06:56:26;98650.81;;;5.63;100.00
19447;BME280;9862;49.462;11.054;2022-12-01T06:58:53;98650.16;;;5.61;100.00
19447;BME280;9862;49.462;11.054;2022-12-01T07:01:19;98653.31;;;5.65;100.00
19447;BME280;9862;49.462;11.054;2022-12-01T07:03:46;98642.75;;;5.65;100.00
19447;BME280;9862;49.462;11.054;2022-12-01T07:06:14;98642.56;;;5.58;100.00
19447;BME280;9862;49.462;11.054;2022-12-01T07:08:41;98650.16;;;5.53;100.00
19447;BME280;9862;49.462;11.054;2022-12-01T07:11:12;98649.81;;;5.56;100.00
19447;BME280;9862;49.462;11.054;2022-12-01T07:13:39;98655.59;;;5.68;100.00
19447;BME280;9862;49.462;11.054;2022-12-01T07:16:07;98658.59;;;5.65;100.00
19447;BME280;9862;49.462;11.054;2022-12-01T07:18:35;98652.97;;;5.68;100.00
19447;BME280;9862;49.462;11.054;2022-12-01T07:21:04;98653.44;;;5.55;100.00
19447;BME280;9862;49.462;11.054;2022-12-01T07:23:32;98656.72;;;5.49;100.00
19447;BME280;9862;49.462;11.054;2022-12-01T07:25:59;98661.47;;;5.37;100.00
19447;BME280;9862;49.462;11.054;2022-12-01T07:28:27;98668.09;;;5.50;100.00
19447;BME280;9862;49.462;11.054;2022-12-01T07:31:00;98666.66;;;5.55;100.00
19447;BME280;9862;49.462;11.054;2022-12-01T07:33:27;98668.16;;;5.66;100.00
19447;BME280;9862;49.462;11.054;2022-12-01T07:35:53;98667.19;;;5.75;100.00
19447;BME280;9862;49.462;11.054;2022-12-01T07:38:20;98668.19;;;5.82;100.00
19447;BME280;9862;49.462;11.054;2022-12-01T07:40:47;98663.44;;;5.94;100.00
19447;BME280;9862;49.462;11.054;2022-12-01T07:43:13;98670.16;;;5.88;100.00
19447;BME280;9862;49.462;11.054;2022-12-01T07:45:41;98667.69;;;5.70;100.00
19447;BME280;9862;49.462;11.054;2022-12-01T07:48:08;98665.38;;;5.75;100.00
19447;BME280;9862;49.462;11.054;2022-12-01T07:50:35;98672.00;;;5.80;100.00
19447;BME280;9862;49.462;11.054;2022-12-01T07:53:01;98669.66;;;5.77;100.00
19447;BME280;9862;49.462;11.054;2022-12-01T07:55:28;98669.69;;;5.85;100.00
19447;BME280;9862;49.462;11.054;2022-12-01T07:57:54;98675.94;;;5.84;100.00
19447;BME280;9862;49.462;11.054;2022-12-01T08:00:21;98670.31;;;5.79;100.00
19447;BME280;9862;49.462;11.054;2022-12-01T08:02:49;98667.69;;;5.87;100.00
19447;BME280;9862;49.462;11.054;2022-12-01T08:05:16;98662.75;;;5.84;100.00
19447;BME280;9862;49.462;11.054;2022-12-01T08:07:43;98664.28;;;5.94;100.00
19447;BME280;9862;49.462;11.054;2022-12-01T08:10:10;98667.56;;;5.96;100.00
19447;BME280;9862;49.462;11.054;2022-12-01T08:12:37;98664.13;;;6.04;100.00
19447;BME280;9862;49.462;11.054;2022-12-01T08:15:04;98667.13;;;6.09;100.00
19447;BME280;9862;49.462;11.054;2022-12-01T08:17:30;98672.72;;;6.22;100.00
19447;BME280;9862;49.462;11.054;2022-12-01T08:19:58;98666.94;;;6.11;100.00
19447;BME280;9862;49.462;11.054;2022-12-01T08:22:25;98668.44;;;6.29;100.00
19447;BME280;9862;49.462;11.054;2022-12-01T08:24:52;98661.00;;;6.33;100.00
19447;BME280;9862;49.462;11.054;2022-12-01T08:27:18;98661.00;;;6.41;100.00
19447;BME280;9862;49.462;11.054;2022-12-01T08:29:45;98669.75;;;6.34;100.00
19447;BME280;9862;49.462;11.054;2022-12-01T08:32:12;98669.25;;;6.38;100.00
19447;BME280;9862;49.462;11.054;2022-12-01T08:34:38;98664.13;;;6.37;100.00
19447;BME280;9862;49.462;11.054;2022-12-01T08:37:07;98667.75;;;6.36;100.00
19447;BME280;9862;49.462;11.054;2022-12-01T08:39:33;98661.81;;;6.42;100.00
19447;BME280;9862;49.462;11.054;2022-12-01T08:42:00;98658.00;;;6.36;100.00
19447;BME280;9862;49.462;11.054;2022-12-01T08:44:27;98656.88;;;6.30;100.00
19447;BME280;9862;49.462;11.054;2022-12-01T08:46:53;98672.38;;;6.17;100.00
19447;BME280;9862;49.462;11.054;2022-12-01T08:49:20;98666.44;;;6.07;100.00
19447;BME280;9862;49.462;11.054;2022-12-01T08:51:47;98665.13;;;6.03;100.00
19447;BME280;9862;49.462;11.054;2022-12-01T08:54:15;98667.44;;;6.22;100.00
19447;BME280;9862;49.462;11.054;2022-12-01T08:56:43;98667.25;;;6.16;100.00
19447;BME280;9862;49.462;11.054;2022-12-01T08:59:10;98676.84;;;6.17;100.00
19447;BME280;9862;49.462;11.054;2022-12-01T09:01:37;98673.03;;;6.36;100.00
19447;BME280;9862;49.462;11.054;2022-12-01T09:04:16;98677.34;;;6.37;100.00
19447;BME280;9862;49.462;11.054;2022-12-01T09:06:45;98678.00;;;6.39;100.00
19447;BME280;9862;49.462;11.054;2022-12-01T09:09:15;98680.66;;;6.30;100.00
19447;BME280;9862;49.462;11.054;2022-12-01T09:11:42;98690.56;;;6.28;100.00
19447;BME280;9862;49.462;11.054;2022-12-01T09:14:09;98693.19;;;6.12;100.00
19447;BME280;9862;49.462;11.054;2022-12-01T09:16:36;98694.84;;;6.05;100.00
19447;BME280;9862;49.462;11.054;2022-12-01T09:19:03;98696.81;;;5.95;100.00
19447;BME280;9862;49.462;11.054;2022-12-01T09:21:31;98688.22;;;5.93;100.00
19447;BME280;9862;49.462;11.054;2022-12-01T09:23:58;98687.59;;;5.99;100.00
19447;BME280;9862;49.462;11.054;2022-12-01T09:26:26;98697.44;;;5.89;100.00
19447;BME280;9862;49.462;11.054;2022-12-01T09:28:54;98688.81;;;5.87;100.00
19447;BME280;9862;49.462;11.054;2022-12-01T09:31:22;98686.19;;;5.87;100.00
19447;BME280;9862;49.462;11.054;2022-12-01T09:33:53;98685.75;;;5.91;100.00
19447;BME280;9862;49.462;11.054;2022-12-01T09:36:20;98692.03;;;5.98;100.00
19447;BME280;9862;49.462;11.054;2022-12-01T09:38:47;98697.09;;;5.84;100.00
19447;BME280;9862;49.462;11.054;2022-12-01T09:41:17;98682.56;;;5.88;100.00
19447;BME280;9862;49.462;11.054;2022-12-01T09:43:52;98687.41;;;5.92;100.00
19447;BME280;9862;49.462;11.054;2022-12-01T09:46:22;98689.53;;;5.97;100.00
19447;BME280;9862;49.462;11.054;2022-12-01T09:48:53;98682.22;;;5.74;100.00
19447;BME280;9862;49.462;11.054;2022-12-01T09:51:24;98676.44;;;5.71;100.00
19447;BME280;9862;49.462;11.054;2022-12-01T09:53:53;98680.56;;;5.82;100.00
19447;BME280;9862;49.462;11.054;2022-12-01T09:56:22;98676.66;;;5.94;100.00
19447;BME280;9862;49.462;11.054;2022-12-01T09:58:53;98676.31;;;5.97;100.00
19447;BME280;9862;49.462;11.054;2022-12-01T10:01:32;98678.50;;;6.01;100.00
19447;BME280;9862;49.462;11.054;2022-12-01T10:04:04;98668.75;;;6.10;100.00
19447;BME280;9862;49.462;11.054;2022-12-01T10:06:37;98655.38;;;6.12;100.00
19447;BME280;9862;49.462;11.054;2022-12-01T10:09:17;98653.22;;;6.23;100.00
19447;BME280;9862;49.462;11.054;2022-12-01T10:11:46;98648.28;;;6.12;100.00
19447;BME280;9862;49.462;11.054;2022-12-01T10:14:17;98662.16;;;6.22;100.00
19447;BME280;9862;49.462;11.054;2022-12-01T10:16:50;98656.84;;;6.06;100.00
19447;BME280;9862;49.462;11.054;2022-12-01T10:19:24;98658.63;;;5.81;100.00
19447;BME280;9862;49.462;11.054;2022-12-01T10:22:04;98649.25;;;5.95;100.00
19447;BME280;9862;49.462;11.054;2022-12-01T10:24:46;98645.28;;;6.15;100.00
19447;BME280;9862;49.462;11.054;2022-12-01T10:27:33;98633.72;;;6.24;100.00
19447;BME280;9862;49.462;11.054;2022-12-01T10:30:08;98637.72;;;6.20;100.00
19447;BME280;9862;49.462;11.054;2022-12-01T10:32:44;98630.78;;;6.03;100.00
19447;BME280;9862;49.462;11.054;2022-12-01T10:35:15;98630.94;;;6.10;100.00
19447;BME280;9862;49.462;11.054;2022-12-01T10:37:43;98618.53;;;6.35;100.00
19447;BME280;9862;49.462;11.054;2022-12-01T10:40:12;98613.22;;;6.59;100.00
19447;BME280;9862;49.462;11.054;2022-12-01T10:42:41;98614.25;;;6.97;100.00
19447;BME280;9862;49.462;11.054;2022-12-01T10:45:14;98614.56;;;6.94;100.00
19447;BME280;9862;49.462;11.054;2022-12-01T10:48:12;98619.44;;;6.74;100.00
19447;BME280;9862;49.462;11.054;2022-12-01T10:50:41;98603.72;;;6.81;100.00
19447;BME280;9862;49.462;11.054;2022-12-01T10:53:24;98613.44;;;6.97;100.00
19447;BME280;9862;49.462;11.054;2022-12-01T10:55:58;98609.44;;;7.01;100.00
19447;BME280;9862;49.462;11.054;2022-12-01T10:58:27;98610.25;;;7.01;100.00
19447;BME280;9862;49.462;11.054;2022-12-01T11:00:57;98610.41;;;7.08;100.00
19447;BME280;9862;49.462;11.054;2022-12-01T11:03:27;98609.66;;;7.22;100.00
19447;BME280;9862;49.462;11.054;2022-12-01T11:05:57;98601.28;;;7.41;100.00
19447;BME280;9862;49.462;11.054;2022-12-01T11:08:35;98601.75;;;7.76;100.00
19447;BME280;9862;49.462;11.054;2022-12-01T11:11:02;98612.44;;;7.60;100.00
19447;BME280;9862;49.462;11.054;2022-12-01T11:13:33;98614.56;;;7.33;100.00
19447;BME280;9862;49.462;11.054;2022-12-01T11:16:03;98609.28;;;7.33;100.00
19447;BME280;9862;49.462;11.054;2022-12-01T11:18:32;98602.47;;;7.39;100.00
19447;BME280;9862;49.462;11.054;2022-12-01T11:21:08;98603.16;;;7.33;100.00
19447;BME280;9862;49.462;11.054;2022-12-01T11:23:37;98607.13;;;7.37;100.00
19447;BME280;9862;49.462;11.054;2022-12-01T11:26:12;98593.66;;;7.46;100.00
19447;BME280;9862;49.462;11.054;2022-12-01T11:28:42;98594.25;;;7.57;100.00
19447;BME280;9862;49.462;11.054;2022-12-01T11:31:18;98590.78;;;7.79;100.00
19447;BME280;9862;49.462;11.054;2022-12-01T11:33:48;98587.31;;;8.01;100.00
19447;BME280;9862;49.462;11.054;2022-12-01T11:36:25;98579.00;;;8.42;100.00
19447;BME280;9862;49.462;11.054;2022-12-01T11:38:58;98585.78;;;8.45;100.00
19447;BME280;9862;49.462;11.054;2022-12-01T11:41:32;98579.44;;;8.31;100.00
19447;BME280;9862;49.462;11.054;2022-12-01T11:44:02;98579.13;;;8.26;100.00
19447;BME280;9862;49.462;11.054;2022-12-01T11:46:33;98582.69;;;8.18;100.00
19447;BME280;9862;49.462;11.054;2022-12-01T11:49:01;98574.72;;;8.18;100.00
19447;BME280;9862;49.462;11.054;2022-12-01T11:51:30;98570.44;;;8.17;100.00
19447;BME280;9862;49.462;11.054;2022-12-01T11:54:11;98571.00;;;8.27;100.00
19447;BME280;9862;49.462;11.054;2022-12-01T11:56:38;98574.97;;;8.46;100.00
19447;BME280;9862;49.462;11.054;2022-12-01T11:59:10;98571.97;;;8.64;100.00
19447;BME280;9862;49.462;11.054;2022-12-01T12:01:52;98566.03;;;8.77;100.00
19447;BME280;9862;49.462;11.054;2022-12-01T12:04:28;98563.56;;;8.90;100.00
19447;BME280;9862;49.462;11.054;2022-12-01T12:07:04;98562.34;;;9.07;100.00
19447;BME280;9862;49.462;11.054;2022-12-01T12:09:49;98563.88;;;9.16;100.00
19447;BME280;9862;49.462;11.054;2022-12-01T12:12:31;98558.09;;;9.28;100.00
19447;BME280;9862;49.462;11.054;2022-12-01T12:15:07;98566.06;;;9.28;100.00
19447;BME280;9862;49.462;11.054;2022-12-01T12:17:48;98560.50;;;9.44;100.00
19447;BME280;9862;49.462;11.054;2022-12-01T12:20:44;98556.88;;;9.30;100.00
19447;BME280;9862;49.462;11.054;2022-12-01T12:23:29;98557.09;;;9.50;100.00
19447;BME280;9862;49.462;11.054;2022-12-01T12:26:07;98552.00;;;9.34;100.00
19447;BME280;9862;49.462;11.054;2022-12-01T12:28:50;98549.88;;;9.44;100.00
19447;BME280;9862;49.462;11.054;2022-12-01T12:31:22;98544.16;;;9.26;100.00
19447;BME280;9862;49.462;11.054;2022-12-01T12:34:01;98544.09;;;9.19;100.00
19447;BME280;9862;49.462;11.054;2022-12-01T12:36:37;98542.47;;;9.18;100.00
19447;BME280;9862;49.462;11.054;2022-12-01T12:39:19;98535.22;;;9.27;100.00
19447;BME280;9862;49.462;11.054;2022-12-01T12:41:51;98529.13;;;9.33;100.00
19447;BME280;9862;49.462;11.054;2022-12-01T12:44:38;98534.72;;;9.38;100.00
19447;BME280;9862;49.462;11.054;2022-12-01T12:47:17;98532.25;;;9.58;100.00
19447;BME280;9862;49.462;11.054;2022-12-01T12:49:49;98535.25;;;9.55;100.00
19447;BME280;9862;49.462;11.054;2022-12-01T12:52:23;98535.47;;;9.53;100.00
19447;BME280;9862;49.462;11.054;2022-12-01T12:54:54;98530.91;;;9.47;100.00
19447;BME280;9862;49.462;11.054;2022-12-01T12:57:27;98533.31;;;9.42;100.00
19447;BME280;9862;49.462;11.054;2022-12-01T12:59:58;98540.25;;;9.43;100.00
19447;BME280;9862;49.462;11.054;2022-12-01T13:02:31;98533.69;;;9.39;100.00
19447;BME280;9862;49.462;11.054;2022-12-01T13:05:05;98538.00;;;9.40;100.00
19447;BME280;9862;49.462;11.054;2022-12-01T13:07:38;98533.75;;;9.45;100.00
19447;BME280;9862;49.462;11.054;2022-12-01T13:10:13;98534.94;;;9.43;100.00
19447;BME280;9862;49.462;11.054;2022-12-01T13:12:48;98543.03;;;9.35;100.00
19447;BME280;9862;49.462;11.054;2022-12-01T13:15:18;98535.22;;;9.48;100.00
19447;BME280;9862;49.462;11.054;2022-12-01T13:17:48;98523.06;;;9.39;100.00
19447;BME280;9862;49.462;11.054;2022-12-01T13:20:21;98518.97;;;9.36;100.00